createdAt,value
2022-09-13T00:01:14.711Z,2.78
2022-09-13T00:03:42.586Z,2.13
2022-09-13T00:06:13.086Z,3.95
2022-09-13T00:08:43.197Z,5.95
2022-09-13T00:11:24.770Z,2.55
2022-09-13T00:13:53.239Z,2.83
2022-09-13T00:16:23.167Z,2.72
2022-09-13T00:18:51.644Z,2.10
2022-09-13T00:21:21.423Z,7.43
2022-09-13T00:23:51.916Z,6.10
2022-09-13T00:26:24.078Z,3.35
2022-09-13T00:28:53.497Z,2.75
2022-09-13T00:31:26.028Z,3.78
2022-09-13T00:33:54.525Z,2.58
2022-09-13T00:36:22.039Z,2.28
2022-09-13T00:38:49.559Z,3.60
2022-09-13T00:41:19.942Z,3.38
2022-09-13T00:43:52.297Z,2.50
2022-09-13T00:46:44.210Z,1.88
2022-09-13T00:49:24.329Z,4.10
2022-09-13T00:52:01.927Z,3.92
2022-09-13T00:54:42.446Z,2.53
2022-09-13T00:57:13.517Z,2.78
2022-09-13T00:59:48.106Z,2.47
2022-09-13T01:02:15.917Z,2.95
2022-09-13T01:04:44.323Z,3.22
2022-09-13T01:07:15.299Z,3.15
2022-09-13T01:09:45.888Z,2.90
2022-09-13T01:12:26.643Z,3.38
2022-09-13T01:14:57.551Z,3.05
2022-09-13T01:17:27.544Z,3.72
2022-09-13T01:19:55.206Z,3.55
2022-09-13T01:22:33.310Z,4.85
2022-09-13T01:25:20.905Z,2.47
2022-09-13T01:28:00.847Z,3.15
2022-09-13T01:30:57.633Z,5.82
2022-09-13T01:33:59.933Z,2.28
2022-09-13T01:36:47.459Z,2.10
2022-09-13T01:39:22.335Z,2.40
2022-09-13T01:42:17.588Z,1.75
2022-09-13T01:44:58.556Z,3.60
2022-09-13T01:47:38.919Z,2.83
2022-09-13T01:50:11.269Z,3.33
2022-09-13T01:52:52.688Z,2.55
2022-09-13T01:55:59.149Z,2.63
2022-09-13T01:58:49.843Z,1.98
2022-09-13T02:01:24.376Z,2.38
2022-09-13T02:03:55.844Z,8.32
2022-09-13T02:06:50.070Z,2.47
2022-09-13T02:09:28.317Z,3.53
2022-09-13T02:12:08.376Z,4.05
2022-09-13T02:14:39.144Z,2.75
2022-09-13T02:17:12.882Z,1.77
2022-09-13T02:20:06.474Z,2.53
2022-09-13T02:22:39.317Z,3.17
2022-09-13T02:25:10.638Z,1.75
2022-09-13T02:27:41.459Z,2.67
2022-09-13T02:30:11.495Z,2.22
2022-09-13T02:33:01.963Z,2.47
2022-09-13T02:35:37.856Z,2.35
2022-09-13T02:38:13.071Z,1.70
2022-09-13T02:40:49.597Z,2.90
2022-09-13T02:43:29.217Z,2.60
2022-09-13T02:46:20.602Z,2.55
2022-09-13T02:49:26.542Z,1.85
2022-09-13T02:51:56.258Z,2.72
2022-09-13T02:54:37.314Z,3.25
2022-09-13T02:57:53.961Z,2.17
2022-09-13T03:00:22.034Z,1.80
2022-09-13T03:02:55.045Z,2.22
2022-09-13T03:05:23.054Z,2.72
2022-09-13T03:07:51.623Z,3.67
2022-09-13T03:10:20.594Z,3.70
2022-09-13T03:13:20.839Z,3.83
2022-09-13T03:15:55.930Z,3.70
2022-09-13T03:18:41.621Z,3.03
2022-09-13T03:21:14.782Z,1.90
2022-09-13T03:24:11.837Z,1.92
2022-09-13T03:26:49.750Z,4.10
2022-09-13T03:29:37.694Z,3.33
2022-09-13T03:32:27.167Z,2.55
2022-09-13T03:35:19.075Z,3.00
2022-09-13T03:38:05.810Z,3.95
2022-09-13T03:40:33.320Z,2.17
2022-09-13T03:43:13.755Z,2.83
2022-09-13T03:45:50.294Z,1.63
2022-09-13T03:48:18.714Z,2.88
2022-09-13T03:50:48.144Z,2.20
2022-09-13T03:53:22.076Z,2.40
2022-09-13T03:55:49.701Z,4.68
2022-09-13T03:58:19.379Z,4.47
2022-09-13T04:00:47.126Z,2.30
2022-09-13T04:03:15.311Z,5.38
2022-09-13T04:05:42.766Z,4.03
2022-09-13T04:08:10.265Z,2.28
2022-09-13T04:10:37.855Z,2.97
2022-09-13T04:13:06.662Z,2.53
2022-09-13T04:15:34.649Z,3.17
2022-09-13T04:18:02.217Z,7.70
2022-09-13T04:20:29.975Z,4.07
2022-09-13T04:23:00.720Z,2.88
2022-09-13T04:25:28.211Z,3.85
2022-09-13T04:27:56.545Z,3.63
2022-09-13T04:30:24.015Z,5.85
2022-09-13T04:32:51.776Z,2.65
2022-09-13T04:35:20.037Z,3.63
2022-09-13T04:37:47.517Z,3.95
2022-09-13T04:40:15.263Z,3.15
2022-09-13T04:42:44.799Z,6.05
2022-09-13T04:45:12.447Z,4.38
2022-09-13T04:47:39.907Z,4.30
2022-09-13T04:50:10.269Z,3.67
2022-09-13T04:52:39.939Z,4.43
2022-09-13T04:55:07.858Z,4.50
2022-09-13T04:57:35.362Z,4.35
2022-09-13T05:00:03.475Z,3.67
2022-09-13T05:02:31.455Z,4.80
2022-09-13T05:04:59.085Z,3.88
2022-09-13T05:07:28.833Z,2.53
2022-09-13T05:09:56.527Z,3.17
2022-09-13T05:12:24.150Z,3.83
2022-09-13T05:14:51.647Z,4.82
2022-09-13T05:17:19.283Z,2.95
2022-09-13T05:19:47.009Z,4.15
2022-09-13T05:22:14.556Z,3.47
2022-09-13T05:24:43.198Z,4.38
2022-09-13T05:27:13.017Z,3.25
2022-09-13T05:29:41.250Z,3.72
2022-09-13T05:32:08.810Z,3.25
2022-09-13T05:34:36.373Z,3.67
2022-09-13T05:37:04.093Z,3.67
2022-09-13T05:39:48.369Z,3.63
2022-09-13T05:42:19.489Z,3.33
2022-09-13T05:44:47.113Z,4.43
2022-09-13T05:47:14.725Z,3.85
2022-09-13T05:50:08.355Z,3.35
2022-09-13T05:52:29.841Z,2.70
2022-09-13T05:54:57.414Z,4.97
2022-09-13T05:57:24.967Z,4.82
2022-09-13T05:59:52.637Z,5.80
2022-09-13T06:02:20.253Z,5.82
2022-09-13T06:04:50.723Z,6.47
2022-09-13T06:07:18.699Z,5.50
2022-09-13T06:09:46.231Z,7.28
2022-09-13T06:12:14.004Z,4.55
2022-09-13T06:14:41.798Z,3.15
2022-09-13T06:17:15.134Z,4.40
2022-09-13T06:19:43.663Z,8.23
2022-09-13T06:22:11.368Z,3.90
2022-09-13T06:24:41.327Z,12.15
2022-09-13T06:27:10.444Z,5.28
2022-09-13T06:29:38.019Z,3.53
2022-09-13T06:37:45.618Z,5.57
2022-09-13T06:45:11.340Z,4.63
2022-09-13T06:47:39.953Z,6.28
2022-09-13T06:50:14.380Z,7.82
2022-09-13T06:52:44.305Z,3.63
2022-09-13T06:59:04.223Z,5.55
2022-09-13T07:02:11.902Z,5.20
2022-09-13T07:36:46.055Z,2.05
2022-09-13T07:39:22.016Z,4.40
2022-09-13T07:41:57.375Z,2.92
2022-09-13T07:44:47.995Z,5.07
2022-09-13T07:48:34.811Z,1.65
2022-09-13T07:51:05.801Z,2.55
2022-09-13T07:53:46.188Z,2.80
2022-09-13T07:56:41.931Z,3.03
2022-09-13T08:00:05.959Z,2.00
2022-09-13T08:02:55.069Z,2.08
2022-09-13T08:08:55.424Z,3.70
2022-09-13T08:11:26.218Z,1.88
2022-09-13T08:14:18.402Z,1.48
2022-09-13T08:16:46.162Z,1.98
2022-09-13T08:19:18.471Z,2.08
2022-09-13T08:21:47.060Z,3.58
2022-09-13T08:24:23.577Z,2.58
2022-09-13T08:26:52.298Z,7.93
2022-09-13T08:29:20.019Z,2.70
2022-09-13T08:31:57.269Z,5.53
2022-09-13T08:34:24.981Z,3.28
2022-09-13T08:36:52.515Z,2.13
2022-09-13T08:39:20.081Z,3.15
2022-09-13T08:42:11.031Z,1.60
2022-09-13T08:44:50.578Z,1.50
2022-09-13T08:47:36.220Z,2.08
2022-09-13T08:50:23.650Z,1.23
2022-09-13T08:53:07.298Z,3.13
2022-09-13T08:55:43.314Z,3.90
2022-09-13T08:58:43.060Z,1.63
2022-09-13T09:01:22.638Z,2.00
2022-09-13T09:04:08.846Z,4.05
2022-09-13T09:06:36.970Z,2.20
2022-09-13T09:09:07.789Z,2.13
2022-09-13T09:12:21.676Z,1.83
2022-09-13T09:15:03.798Z,2.17
2022-09-13T09:17:55.942Z,4.70
2022-09-13T09:22:56.433Z,2.80
2022-09-13T09:25:26.817Z,4.35
2022-09-13T09:27:55.784Z,2.22
2022-09-13T09:30:56.402Z,2.67
2022-09-13T09:33:55.194Z,2.20
2022-09-13T09:36:44.721Z,2.63
2022-09-13T09:39:16.437Z,4.53
2022-09-13T09:41:47.873Z,3.00
2022-09-13T09:44:23.767Z,4.28
2022-09-13T09:46:57.819Z,2.50
2022-09-13T09:50:10.117Z,3.58
2022-09-13T09:53:03.169Z,2.13
2022-09-13T09:55:35.064Z,8.40
2022-09-13T09:58:06.537Z,4.43
2022-09-13T10:00:58.178Z,4.97
2022-09-13T10:03:31.810Z,3.65
2022-09-13T10:06:13.129Z,2.88
2022-09-13T10:09:16.720Z,3.40
2022-09-13T10:11:54.034Z,3.15
2022-09-13T10:15:15.551Z,4.03
2022-09-13T10:17:51.029Z,3.88
2022-09-13T10:20:23.484Z,4.13
2022-09-13T10:23:23.596Z,4.03
2022-09-13T10:26:02.883Z,4.28
2022-09-13T10:28:35.281Z,6.30
2022-09-13T10:31:16.874Z,3.20
2022-09-13T10:34:01.562Z,4.05
2022-09-13T10:39:23.565Z,4.82
2022-09-13T10:41:59.792Z,4.45
2022-09-13T10:44:47.014Z,6.07
2022-09-13T10:47:22.342Z,4.45
2022-09-13T10:49:57.172Z,4.18
2022-09-13T10:52:43.566Z,5.38
2022-09-13T10:55:29.158Z,4.50
2022-09-13T10:58:17.565Z,3.50
2022-09-13T11:01:50.060Z,5.10
2022-09-13T11:05:20.099Z,4.88
2022-09-13T11:08:09.071Z,8.30
2022-09-13T11:10:43.774Z,4.07
2022-09-13T11:13:34.862Z,4.13
2022-09-13T11:16:20.384Z,4.40
2022-09-13T11:19:08.765Z,4.55
2022-09-13T11:22:18.791Z,4.82
2022-09-13T11:25:23.298Z,4.32
2022-09-13T11:28:08.349Z,4.57
2022-09-13T11:33:49.627Z,5.10
2022-09-13T11:36:58.177Z,4.60
2022-09-13T11:39:32.931Z,5.28
2022-09-13T11:45:30.669Z,6.13
2022-09-13T11:48:17.248Z,4.63
2022-09-13T11:50:50.623Z,6.30
2022-09-13T11:54:01.830Z,5.82
2022-09-13T11:56:39.010Z,6.22
2022-09-13T11:59:26.796Z,6.35
2022-09-13T12:02:03.343Z,5.18
2022-09-13T12:04:42.266Z,6.53
2022-09-13T12:07:19.381Z,5.65
2022-09-13T12:10:02.627Z,5.43
2022-09-13T12:12:36.932Z,4.80
2022-09-13T12:15:17.690Z,4.78
2022-09-13T12:17:53.368Z,8.27
2022-09-13T12:21:17.077Z,3.65
2022-09-13T12:27:43.218Z,6.95
2022-09-13T12:30:21.062Z,5.15
2022-09-13T12:32:49.581Z,3.80
2022-09-13T12:35:30.297Z,6.47
2022-09-13T12:38:29.374Z,3.67
2022-09-13T12:41:25.699Z,4.43
2022-09-13T12:44:14.800Z,3.80
2022-09-13T12:47:39.187Z,3.35
2022-09-13T12:53:32.937Z,3.78
2022-09-13T12:56:11.034Z,3.55
2022-09-13T12:58:56.673Z,3.35
2022-09-13T13:01:34.647Z,5.10
2022-09-13T13:04:10.901Z,5.18
2022-09-13T13:07:34.753Z,5.22
2022-09-13T13:13:55.648Z,4.77
2022-09-13T13:19:41.806Z,3.00
2022-09-13T13:29:08.424Z,5.13
2022-09-13T13:34:53.624Z,4.93
2022-09-13T13:40:29.753Z,5.85
2022-09-13T13:49:39.554Z,6.28
2022-09-13T14:35:42.264Z,7.28
2022-09-13T15:11:53.190Z,5.45
2022-09-13T15:31:33.596Z,2.92
2022-09-13T15:34:22.006Z,4.15
2022-09-13T15:37:01.715Z,2.75
2022-09-13T15:39:29.554Z,4.28
2022-09-13T15:42:00.105Z,5.80
2022-09-13T15:44:32.722Z,4.38
2022-09-13T15:47:04.063Z,3.80
2022-09-13T16:12:34.302Z,4.72
2022-09-13T16:20:21.636Z,2.72
2022-09-13T16:28:24.585Z,4.78
2022-09-13T16:30:42.183Z,4.22
2022-09-13T16:34:33.963Z,3.03
2022-09-13T16:41:11.671Z,8.82
2022-09-13T16:44:55.211Z,3.28
2022-09-13T16:51:06.728Z,5.18
2022-09-13T16:53:38.310Z,4.85
2022-09-13T16:56:12.368Z,7.25
2022-09-13T16:58:41.626Z,5.10
2022-09-13T17:01:14.827Z,7.35
2022-09-13T17:03:54.031Z,4.88
2022-09-13T17:06:24.044Z,6.28
2022-09-13T17:09:04.495Z,6.97
2022-09-13T17:11:35.349Z,6.78
2022-09-13T17:14:05.184Z,3.80
2022-09-13T17:16:54.119Z,5.60
2022-09-13T17:19:25.979Z,5.78
2022-09-13T17:21:57.444Z,6.85
2022-09-13T17:24:27.102Z,4.32
2022-09-13T17:26:56.877Z,6.05
2022-09-13T17:29:31.689Z,5.43
2022-09-13T17:32:01.469Z,7.78
2022-09-13T17:34:32.104Z,5.43
2022-09-13T17:37:50.013Z,6.07
2022-09-13T17:40:20.219Z,7.05
2022-09-13T17:42:51.163Z,8.23
2022-09-13T17:45:19.470Z,10.43
2022-09-13T17:47:53.168Z,8.40
2022-09-13T17:50:33.444Z,11.68
2022-09-13T17:53:08.492Z,6.18
2022-09-13T17:55:49.821Z,7.00
2022-09-13T17:58:22.219Z,9.43
2022-09-13T18:01:04.543Z,10.60
2022-09-13T18:03:36.604Z,10.70
2022-09-13T18:07:14.664Z,10.88
2022-09-13T18:09:43.466Z,11.13
2022-09-13T18:12:11.943Z,13.13
2022-09-13T18:16:04.523Z,10.80
2022-09-13T18:18:35.063Z,8.50
2022-09-13T18:21:09.537Z,9.75
2022-09-13T18:23:37.199Z,14.55
2022-09-13T18:26:11.771Z,7.65
2022-09-13T18:28:45.306Z,7.95
2022-09-13T18:31:24.214Z,8.57
2022-09-13T18:34:00.505Z,9.88
2022-09-13T18:36:31.127Z,4.18
2022-09-13T18:39:05.060Z,5.07
2022-09-13T18:41:40.388Z,5.80
2022-09-13T18:44:21.123Z,4.93
2022-09-13T18:46:50.672Z,7.65
2022-09-13T18:49:25.164Z,4.47
2022-09-13T18:51:58.127Z,4.38
2022-09-13T18:54:35.677Z,5.25
2022-09-13T18:57:03.654Z,5.68
2022-09-13T18:59:38.863Z,4.78
2022-09-13T19:02:29.168Z,3.97
2022-09-13T19:16:32.703Z,8.82
2022-09-13T19:19:04.886Z,6.97
2022-09-13T19:19:20.771Z,7.40
2022-09-13T19:21:51.218Z,6.47
2022-09-13T19:30:48.096Z,5.55
2022-09-13T19:37:20.866Z,5.45
2022-09-13T19:49:26.984Z,6.88
2022-09-13T20:41:00.932Z,9.02
2022-09-13T20:43:49.226Z,10.23
2022-09-13T20:46:36.461Z,7.72
2022-09-13T20:49:05.646Z,7.30
2022-09-13T21:19:16.401Z,9.50
2022-09-13T21:21:44.053Z,10.20
2022-09-13T21:24:12.760Z,10.10
2022-09-13T21:26:42.478Z,9.75
2022-09-13T21:29:14.436Z,9.52
2022-09-13T21:31:42.474Z,9.52
2022-09-13T21:34:20.216Z,9.45
2022-09-13T21:36:53.719Z,9.60
2022-09-13T21:39:21.435Z,8.73
2022-09-13T21:41:49.622Z,8.27
2022-09-13T21:44:19.672Z,8.07
2022-09-13T21:46:47.307Z,10.38
2022-09-13T21:49:15.907Z,8.65
2022-09-13T21:51:46.639Z,7.90
2022-09-13T21:54:19.437Z,7.43
2022-09-13T21:56:54.900Z,7.40
2022-09-13T21:59:29.732Z,8.07
2022-09-13T22:02:32.086Z,7.30
2022-09-13T22:05:28.468Z,6.90
2022-09-13T22:08:22.075Z,6.13
2022-09-13T22:10:57.282Z,7.47
2022-09-13T22:13:31.423Z,7.28
2022-09-13T22:16:10.949Z,6.78
2022-09-13T22:18:42.560Z,7.03
2022-09-13T22:21:19.211Z,8.88
2022-09-13T22:23:49.787Z,6.13
2022-09-13T22:26:24.311Z,6.15
2022-09-13T22:28:55.891Z,5.60
2022-09-13T22:31:43.145Z,5.57
2022-09-13T22:34:22.051Z,5.75
2022-09-13T22:37:00.445Z,5.53
2022-09-13T22:39:32.017Z,6.88
2022-09-13T22:42:00.580Z,5.70
2022-09-13T22:44:33.423Z,7.70
2022-09-13T22:47:07.519Z,6.22
2022-09-13T22:49:41.207Z,5.18
2022-09-13T22:52:09.243Z,4.72
2022-09-13T22:54:39.075Z,5.85
2022-09-13T22:57:09.363Z,5.68
2022-09-13T22:59:37.188Z,6.72
2022-09-13T23:02:04.898Z,5.57
2022-09-13T23:04:35.011Z,4.93
2022-09-13T23:07:12.478Z,7.07
2022-09-13T23:09:41.417Z,6.88
2022-09-13T23:12:15.033Z,6.13
2022-09-13T23:14:45.409Z,6.68
2022-09-13T23:17:18.875Z,6.22
2022-09-13T23:19:46.592Z,4.63
2022-09-13T23:22:25.321Z,6.55
2022-09-13T23:25:00.359Z,5.30
2022-09-13T23:27:28.171Z,5.75
2022-09-13T23:37:31.239Z,5.03
2022-09-13T23:41:28.878Z,4.72
2022-09-13T23:44:09.140Z,4.85
2022-09-13T23:46:50.841Z,6.15
2022-09-13T23:50:02.870Z,4.78
2022-09-13T23:52:48.185Z,6.05
2022-09-13T23:55:41.747Z,8.00
2022-09-13T23:58:11.826Z,5.13
